createdAt,value
2017-12-31T00:00:19.385Z,20.00
2017-12-31T00:02:48.851Z,19.17
2017-12-31T00:05:17.077Z,19.58
2017-12-31T00:07:44.520Z,22.77
2017-12-31T00:10:12.035Z,15.75
2017-12-31T00:12:45.319Z,18.12
2017-12-31T00:15:12.784Z,18.05
2017-12-31T00:17:41.000Z,22.62
2017-12-31T00:20:09.204Z,21.92
2017-12-31T00:22:36.672Z,25.83
2017-12-31T00:25:04.133Z,18.75
2017-12-31T00:27:31.604Z,19.08
2017-12-31T00:30:00.992Z,19.58
2017-12-31T00:32:28.429Z,29.08
2017-12-31T00:34:55.889Z,21.92
2017-12-31T00:37:23.440Z,22.30
2017-12-31T00:39:50.879Z,24.08
2017-12-31T00:42:18.320Z,21.83
2017-12-31T00:44:45.785Z,20.42
2017-12-31T00:47:13.576Z,23.77
2017-12-31T00:49:41.011Z,24.58
2017-12-31T00:52:08.452Z,19.98
2017-12-31T00:54:36.667Z,25.70
2017-12-31T00:57:04.108Z,20.65
2017-12-31T00:59:31.565Z,26.25
2017-12-31T01:02:18.529Z,14.38
2017-12-31T01:04:45.955Z,16.62
2017-12-31T01:07:13.424Z,21.20
2017-12-31T01:09:40.930Z,17.33
2017-12-31T01:12:08.361Z,21.05
2017-12-31T01:14:35.817Z,20.58
2017-12-31T01:17:03.253Z,12.68
2017-12-31T01:19:30.985Z,21.98
2017-12-31T01:21:59.396Z,20.30
2017-12-31T01:24:28.084Z,16.62
2017-12-31T01:26:55.524Z,16.42
2017-12-31T01:29:22.968Z,16.50
2017-12-31T01:31:50.552Z,17.35
2017-12-31T01:34:17.989Z,14.40
2017-12-31T01:36:45.416Z,17.45
2017-12-31T01:39:12.928Z,18.02
2017-12-31T01:41:40.384Z,13.05
2017-12-31T01:44:07.863Z,11.63
2017-12-31T01:46:35.325Z,16.52
2017-12-31T01:49:02.760Z,13.55
2017-12-31T01:51:30.198Z,13.27
2017-12-31T01:53:57.668Z,11.55
2017-12-31T01:56:25.114Z,10.85
2017-12-31T01:58:52.649Z,8.82
2017-12-31T02:01:20.076Z,8.95
2017-12-31T02:03:48.312Z,7.03
2017-12-31T02:06:15.748Z,6.78
2017-12-31T02:08:43.341Z,5.80
2017-12-31T02:11:10.849Z,8.80
2017-12-31T02:13:38.276Z,7.07
2017-12-31T02:16:05.716Z,5.20
2017-12-31T02:18:33.179Z,8.70
2017-12-31T02:21:00.680Z,5.75
2017-12-31T02:23:28.113Z,6.40
2017-12-31T02:25:56.370Z,3.15
2017-12-31T02:28:23.794Z,2.55
2017-12-31T02:30:51.263Z,2.00
2017-12-31T02:33:18.702Z,5.22
2017-12-31T02:35:46.304Z,4.90
2017-12-31T02:38:13.744Z,3.50
2017-12-31T02:40:41.178Z,6.20
2017-12-31T02:43:08.644Z,3.33
2017-12-31T02:45:36.077Z,4.62
2017-12-31T02:48:03.533Z,2.87
2017-12-31T02:50:30.965Z,2.90
2017-12-31T02:52:59.288Z,4.18
2017-12-31T02:55:26.721Z,2.70
2017-12-31T02:58:05.220Z,4.45
2017-12-31T03:00:33.427Z,3.10
2017-12-31T03:03:00.857Z,3.28
2017-12-31T03:05:29.085Z,4.65
2017-12-31T03:07:56.644Z,2.53
2017-12-31T03:10:24.101Z,6.60
2017-12-31T03:12:51.540Z,8.23
2017-12-31T03:15:19.324Z,3.80
2017-12-31T03:17:46.765Z,4.00
2017-12-31T03:20:14.260Z,3.40
2017-12-31T03:22:41.713Z,2.95
2017-12-31T03:25:09.116Z,3.00
2017-12-31T03:27:36.580Z,2.45
2017-12-31T03:30:04.173Z,3.30
2017-12-31T03:32:31.607Z,3.28
2017-12-31T03:34:59.065Z,2.70
2017-12-31T03:37:26.496Z,3.45
2017-12-31T03:39:54.743Z,1.75
2017-12-31T03:42:22.164Z,2.20
2017-12-31T03:44:49.592Z,1.70
2017-12-31T03:47:17.237Z,2.12
2017-12-31T03:49:44.673Z,1.25
2017-12-31T03:52:12.113Z,1.25
2017-12-31T03:54:39.580Z,1.45
2017-12-31T03:57:07.044Z,1.20
2017-12-31T03:59:34.484Z,1.50
2017-12-31T04:02:01.917Z,2.80
2017-12-31T04:04:29.517Z,2.45
2017-12-31T04:06:56.944Z,2.10
2017-12-31T04:09:24.404Z,2.87
2017-12-31T04:11:51.848Z,4.70
2017-12-31T04:14:19.312Z,3.03
2017-12-31T04:16:47.504Z,3.35
2017-12-31T04:19:15.018Z,3.20
2017-12-31T04:21:42.457Z,4.25
2017-12-31T04:24:09.960Z,5.10
2017-12-31T04:26:37.393Z,6.22
2017-12-31T04:29:05.872Z,9.38
2017-12-31T04:31:39.036Z,8.25
2017-12-31T04:34:06.504Z,12.55
2017-12-31T04:36:34.753Z,12.32
2017-12-31T04:39:02.184Z,14.98
2017-12-31T04:41:29.956Z,16.02
2017-12-31T04:43:57.388Z,8.57
2017-12-31T04:46:40.832Z,12.45
2017-12-31T04:49:08.271Z,11.85
2017-12-31T04:51:35.744Z,13.43
2017-12-31T04:54:03.178Z,16.95
2017-12-31T04:56:30.825Z,12.25
2017-12-31T04:58:59.023Z,15.10
2017-12-31T05:01:26.461Z,15.93
2017-12-31T05:03:54.810Z,10.23
2017-12-31T05:06:22.253Z,15.60
2017-12-31T05:08:49.696Z,15.35
2017-12-31T05:11:17.188Z,14.05
2017-12-31T05:13:44.765Z,12.85
2017-12-31T05:16:14.968Z,11.57
2017-12-31T05:18:42.435Z,11.88
2017-12-31T05:21:09.902Z,20.73
2017-12-31T05:23:37.340Z,22.75
2017-12-31T05:26:04.845Z,18.02
2017-12-31T05:28:32.280Z,10.23
2017-12-31T05:31:00.500Z,15.13
2017-12-31T05:33:28.124Z,13.85
2017-12-31T05:35:56.366Z,16.50
2017-12-31T05:38:23.813Z,17.62
2017-12-31T05:40:51.281Z,14.13
2017-12-31T05:43:18.760Z,13.55
2017-12-31T05:45:46.236Z,13.82
2017-12-31T05:48:14.461Z,21.00
2017-12-31T05:50:41.900Z,15.70
2017-12-31T05:53:09.394Z,20.92
2017-12-31T05:55:36.831Z,16.40
2017-12-31T05:58:04.333Z,15.50
2017-12-31T06:00:32.532Z,16.77
2017-12-31T06:03:00.142Z,16.92
2017-12-31T06:05:27.600Z,14.95
2017-12-31T06:08:00.196Z,13.25
2017-12-31T06:10:28.420Z,13.65
2017-12-31T06:12:56.304Z,13.25
2017-12-31T06:15:23.872Z,11.45
2017-12-31T06:17:52.325Z,14.48
2017-12-31T06:20:19.800Z,15.02
2017-12-31T06:22:47.259Z,11.73
2017-12-31T06:25:14.873Z,10.98
2017-12-31T06:27:42.336Z,15.25
2017-12-31T06:30:09.850Z,10.30
2017-12-31T06:32:37.289Z,11.98
2017-12-31T06:35:04.904Z,9.77
2017-12-31T06:37:33.128Z,9.13
2017-12-31T06:40:00.716Z,12.43
2017-12-31T06:42:28.228Z,10.50
2017-12-31T06:44:55.842Z,10.93
2017-12-31T06:47:23.380Z,13.80
2017-12-31T06:49:51.760Z,12.23
2017-12-31T06:52:19.247Z,8.40
2017-12-31T06:54:47.493Z,9.02
2017-12-31T06:57:20.942Z,10.38
2017-12-31T06:59:52.314Z,11.07
2017-12-31T07:02:19.785Z,10.70
2017-12-31T07:04:47.297Z,13.15
2017-12-31T07:07:21.605Z,9.38
2017-12-31T07:09:49.817Z,5.07
2017-12-31T07:12:17.571Z,10.18
2017-12-31T07:14:45.003Z,7.75
2017-12-31T07:17:13.204Z,8.20
2017-12-31T07:19:40.713Z,7.95
2017-12-31T07:22:08.108Z,8.35
2017-12-31T07:24:35.649Z,10.15
2017-12-31T07:27:04.966Z,8.98
2017-12-31T07:29:32.433Z,8.45
2017-12-31T07:32:00.014Z,11.10
2017-12-31T07:34:27.488Z,7.97
2017-12-31T07:36:54.929Z,6.57
2017-12-31T07:39:25.536Z,7.80
2017-12-31T07:41:53.043Z,7.57
2017-12-31T07:44:20.519Z,38.63
2017-12-31T07:46:48.802Z,6.60
2017-12-31T07:49:16.369Z,5.43
2017-12-31T07:51:47.720Z,11.00
2017-12-31T07:54:15.953Z,8.85
2017-12-31T07:56:43.393Z,6.12
2017-12-31T07:59:10.884Z,6.30
2017-12-31T08:01:38.336Z,7.72
2017-12-31T08:04:05.781Z,7.85
2017-12-31T08:06:33.375Z,6.00
2017-12-31T08:09:01.618Z,15.85
2017-12-31T08:11:29.067Z,12.02
2017-12-31T08:13:56.597Z,8.13
2017-12-31T08:16:24.072Z,11.02
2017-12-31T08:21:45.145Z,8.00
2017-12-31T08:24:12.784Z,18.23
2017-12-31T08:26:40.233Z,38.15
2017-12-31T08:29:29.558Z,14.05
2017-12-31T08:31:57.758Z,5.80
2017-12-31T08:34:25.293Z,49.95
2017-12-31T08:36:52.739Z,18.33
2017-12-31T08:39:20.259Z,5.22
2017-12-31T08:41:47.735Z,16.75
2017-12-31T08:44:15.217Z,12.80
2017-12-31T08:46:43.423Z,7.57
2017-12-31T08:49:10.857Z,8.52
2017-12-31T08:51:39.137Z,8.40
2017-12-31T08:54:07.349Z,23.25
2017-12-31T08:59:29.576Z,7.43
2017-12-31T09:01:57.053Z,7.20
2017-12-31T09:04:24.484Z,7.30
2017-12-31T09:06:51.926Z,7.72
2017-12-31T09:09:20.294Z,13.70
2017-12-31T09:11:47.732Z,13.77
2017-12-31T09:14:16.610Z,5.20
2017-12-31T09:16:44.046Z,18.55
2017-12-31T09:19:12.114Z,22.35
2017-12-31T09:21:39.561Z,18.25
2017-12-31T09:24:07.020Z,9.40
2017-12-31T09:26:34.465Z,14.98
2017-12-31T09:29:02.765Z,5.50
2017-12-31T09:31:30.200Z,10.18
2017-12-31T09:33:57.893Z,11.50
2017-12-31T09:36:25.334Z,8.45
2017-12-31T09:38:52.808Z,6.70
2017-12-31T09:41:21.225Z,11.30
2017-12-31T09:43:48.677Z,10.70
2017-12-31T09:46:16.154Z,9.02
2017-12-31T09:48:43.598Z,8.23
2017-12-31T09:51:11.045Z,13.35
2017-12-31T09:53:38.677Z,4.40
2017-12-31T09:56:06.112Z,4.18
2017-12-31T09:58:33.689Z,5.28
2017-12-31T10:01:01.134Z,8.27
2017-12-31T10:03:28.577Z,7.80
2017-12-31T10:05:56.848Z,5.65
2017-12-31T10:08:34.099Z,5.12
2017-12-31T10:11:01.884Z,6.03
2017-12-31T10:13:52.261Z,5.80
2017-12-31T10:16:19.705Z,6.80
2017-12-31T10:18:47.168Z,5.60
2017-12-31T10:21:14.661Z,2.55
2017-12-31T10:23:42.169Z,4.82
2017-12-31T10:26:09.665Z,7.95
2017-12-31T10:28:37.102Z,4.43
2017-12-31T10:31:16.799Z,6.68
2017-12-31T10:33:44.268Z,3.65
2017-12-31T10:36:11.708Z,5.35
2017-12-31T10:38:39.945Z,3.55
2017-12-31T10:41:07.462Z,4.12
2017-12-31T10:43:34.925Z,7.72
2017-12-31T10:46:03.376Z,5.07
2017-12-31T10:48:31.592Z,6.12
2017-12-31T10:50:59.216Z,6.10
2017-12-31T10:53:26.699Z,6.30
2017-12-31T10:55:54.133Z,5.28
2017-12-31T10:58:22.355Z,3.72
2017-12-31T11:00:55.452Z,4.60
2017-12-31T11:03:22.946Z,3.95
2017-12-31T11:05:51.157Z,9.82
2017-12-31T11:08:18.642Z,4.85
2017-12-31T11:10:46.192Z,3.25
2017-12-31T11:13:13.643Z,4.12
2017-12-31T11:16:01.902Z,4.25
2017-12-31T11:18:29.450Z,4.65
2017-12-31T11:20:56.890Z,5.03
2017-12-31T11:23:24.417Z,5.43
2017-12-31T11:25:52.624Z,2.85
2017-12-31T11:30:47.253Z,4.28
2017-12-31T11:33:14.700Z,4.70
2017-12-31T11:35:42.205Z,3.62
2017-12-31T11:38:10.616Z,3.97
2017-12-31T11:40:39.026Z,3.20
2017-12-31T11:43:06.491Z,4.57
2017-12-31T11:45:33.934Z,4.22
2017-12-31T11:48:07.190Z,3.03
2017-12-31T11:50:35.420Z,3.95
2017-12-31T11:53:02.868Z,3.53
2017-12-31T11:55:33.168Z,3.20
2017-12-31T11:58:00.602Z,3.80
2017-12-31T12:00:28.983Z,3.40
2017-12-31T12:02:56.717Z,2.72
2017-12-31T12:05:24.191Z,2.75
2017-12-31T12:07:51.664Z,2.10
2017-12-31T12:10:19.908Z,3.17
2017-12-31T12:12:47.369Z,3.45
2017-12-31T12:15:14.813Z,2.67
2017-12-31T12:17:42.373Z,3.37
2017-12-31T12:20:09.814Z,4.95
2017-12-31T12:22:38.192Z,1.50
2017-12-31T12:25:05.638Z,1.40
2017-12-31T12:27:33.064Z,2.47
2017-12-31T12:30:01.416Z,2.55
2017-12-31T12:32:28.855Z,3.50
2017-12-31T12:34:59.308Z,1.60
2017-12-31T12:37:26.949Z,4.20
2017-12-31T12:39:54.385Z,2.85
2017-12-31T12:42:21.841Z,3.60
2017-12-31T12:44:49.308Z,2.40
2017-12-31T12:47:16.757Z,3.03
2017-12-31T12:49:44.993Z,2.75
2017-12-31T12:52:13.207Z,2.80
2017-12-31T12:54:40.721Z,2.53
2017-12-31T12:57:08.160Z,3.28
2017-12-31T12:59:35.637Z,4.18
2017-12-31T13:02:06.054Z,8.10
2017-12-31T13:04:34.822Z,2.80
2017-12-31T13:07:02.265Z,4.00
2017-12-31T13:09:29.755Z,3.40
2017-12-31T13:11:57.181Z,3.50
2017-12-31T13:14:29.628Z,2.70
2017-12-31T13:16:57.066Z,4.15
2017-12-31T13:19:25.412Z,2.47
2017-12-31T13:21:52.912Z,4.37
2017-12-31T13:24:21.113Z,2.92
2017-12-31T13:26:48.682Z,6.45
2017-12-31T13:29:16.186Z,4.05
2017-12-31T13:31:43.644Z,3.40
2017-12-31T13:34:11.732Z,9.98
2017-12-31T13:36:39.982Z,4.82
2017-12-31T13:39:07.917Z,10.68
2017-12-31T13:41:35.372Z,15.05
2017-12-31T13:44:02.807Z,10.07
2017-12-31T13:46:31.644Z,16.52
2017-12-31T13:48:59.097Z,4.25
2017-12-31T13:51:26.532Z,4.78
2017-12-31T13:53:54.004Z,9.63
2017-12-31T13:56:21.521Z,18.08
2017-12-31T13:58:48.963Z,13.55
2017-12-31T14:01:17.172Z,3.53
2017-12-31T14:03:44.760Z,5.55
2017-12-31T14:06:15.196Z,6.80
2017-12-31T14:08:42.670Z,37.47
2017-12-31T14:11:10.105Z,5.72
2017-12-31T14:13:37.573Z,10.43
2017-12-31T14:16:05.453Z,7.10
2017-12-31T14:18:34.333Z,8.63
2017-12-31T14:21:01.801Z,2.95
2017-12-31T14:23:29.333Z,4.62
2017-12-31T14:25:56.770Z,4.10
2017-12-31T14:28:24.237Z,6.55
2017-12-31T14:30:52.447Z,4.53
2017-12-31T14:33:19.897Z,4.47
2017-12-31T14:35:47.370Z,3.25
2017-12-31T14:38:15.571Z,3.62
2017-12-31T14:40:43.113Z,2.72
2017-12-31T14:43:10.844Z,3.33
2017-12-31T14:45:40.252Z,4.75
2017-12-31T14:48:07.998Z,4.55
2017-12-31T14:50:35.515Z,2.37
2017-12-31T14:53:02.956Z,3.65
2017-12-31T14:55:31.162Z,5.07
2017-12-31T14:57:58.621Z,2.03
2017-12-31T15:00:26.180Z,4.35
2017-12-31T15:02:53.761Z,3.95
2017-12-31T15:05:21.240Z,2.55
2017-12-31T15:07:48.694Z,4.72
2017-12-31T15:10:16.144Z,2.97
2017-12-31T15:12:43.656Z,3.62
2017-12-31T15:15:11.907Z,2.35
2017-12-31T15:17:39.339Z,2.80
2017-12-31T15:20:06.842Z,2.80
2017-12-31T15:22:35.265Z,2.80
2017-12-31T15:25:02.705Z,3.17
2017-12-31T15:27:31.160Z,10.40
2017-12-31T15:29:58.686Z,4.65
2017-12-31T15:32:26.131Z,2.55
2017-12-31T15:34:53.816Z,3.30
2017-12-31T15:37:21.320Z,5.00
2017-12-31T15:39:48.981Z,4.80
2017-12-31T15:42:16.460Z,4.82
2017-12-31T15:44:43.895Z,5.72
2017-12-31T15:50:08.092Z,3.87
2017-12-31T15:52:35.537Z,3.45
2017-12-31T15:55:03.740Z,3.90
2017-12-31T15:57:31.345Z,2.80
2017-12-31T16:00:19.638Z,3.80
2017-12-31T16:02:47.081Z,2.70
2017-12-31T16:05:14.550Z,2.12
2017-12-31T16:07:42.032Z,2.37
2017-12-31T16:10:09.478Z,3.28
2017-12-31T16:12:36.920Z,2.67
2017-12-31T16:15:13.329Z,3.08
2017-12-31T16:17:40.772Z,4.78
2017-12-31T16:20:08.306Z,3.55
2017-12-31T16:22:35.736Z,2.15
2017-12-31T16:25:03.975Z,2.10
2017-12-31T16:27:31.413Z,2.42
2017-12-31T16:29:58.859Z,2.65
2017-12-31T16:32:29.537Z,6.03
2017-12-31T16:34:56.977Z,2.20
2017-12-31T16:37:24.436Z,2.03
2017-12-31T16:39:51.917Z,3.53
2017-12-31T16:42:19.360Z,3.70
2017-12-31T16:44:46.792Z,3.10
2017-12-31T16:47:14.258Z,3.80
2017-12-31T16:49:41.700Z,3.55
2017-12-31T16:52:10.216Z,2.30
2017-12-31T16:54:37.660Z,3.30
2017-12-31T16:57:05.135Z,3.15
2017-12-31T16:59:32.572Z,5.03
2017-12-31T17:02:00.068Z,3.45
2017-12-31T17:04:27.505Z,2.80
2017-12-31T17:06:54.940Z,2.92
2017-12-31T17:09:22.577Z,6.80
2017-12-31T17:11:50.528Z,2.55
2017-12-31T17:14:18.745Z,4.12
2017-12-31T17:16:46.190Z,3.87
2017-12-31T17:19:13.872Z,2.80
2017-12-31T17:21:41.300Z,3.15
2017-12-31T17:24:08.748Z,2.75
2017-12-31T17:26:36.452Z,3.10
2017-12-31T17:29:03.919Z,3.05
2017-12-31T17:31:32.474Z,4.15
2017-12-31T17:34:00.037Z,2.10
2017-12-31T17:36:27.502Z,3.08
2017-12-31T17:38:54.960Z,3.28
2017-12-31T17:41:22.559Z,8.23
2017-12-31T17:43:50.003Z,4.10
2017-12-31T17:46:17.445Z,3.42
2017-12-31T17:48:44.952Z,3.92
2017-12-31T17:51:17.048Z,7.55
2017-12-31T17:53:44.490Z,3.28
2017-12-31T17:56:11.932Z,15.52
2017-12-31T17:58:40.163Z,11.55
2017-12-31T18:01:07.633Z,7.00
2017-12-31T18:03:35.072Z,5.57
2017-12-31T18:06:02.655Z,3.95
2017-12-31T18:08:30.092Z,7.37
2017-12-31T18:10:57.540Z,6.07
2017-12-31T18:13:25.421Z,17.45
2017-12-31T18:15:52.865Z,18.85
2017-12-31T18:18:20.328Z,11.77
2017-12-31T18:20:47.766Z,5.20
2017-12-31T18:23:15.560Z,23.33
2017-12-31T18:25:43.958Z,9.57
2017-12-31T18:28:11.401Z,9.07
2017-12-31T18:30:38.870Z,7.00
2017-12-31T18:33:06.352Z,10.73
2017-12-31T18:35:34.555Z,6.90
2017-12-31T18:38:02.044Z,7.43
2017-12-31T18:40:29.484Z,5.43
2017-12-31T18:42:56.933Z,4.32
2017-12-31T18:45:24.658Z,3.97
2017-12-31T18:47:52.163Z,3.33
2017-12-31T18:50:19.679Z,3.47
2017-12-31T18:52:49.141Z,5.55
2017-12-31T18:55:16.584Z,3.17
2017-12-31T18:57:44.820Z,3.03
2017-12-31T19:03:08.060Z,2.67
2017-12-31T19:05:35.560Z,5.22
2017-12-31T19:08:03.784Z,3.60
2017-12-31T19:10:31.434Z,3.45
2017-12-31T19:12:58.865Z,2.72
2017-12-31T19:15:27.336Z,2.30
2017-12-31T19:17:55.539Z,2.40
2017-12-31T19:20:23.106Z,3.35
2017-12-31T19:22:50.556Z,3.40
2017-12-31T19:25:18.182Z,3.45
2017-12-31T19:27:45.893Z,2.97
2017-12-31T19:30:14.129Z,4.20
2017-12-31T19:32:41.698Z,2.95
2017-12-31T19:35:09.159Z,3.45
2017-12-31T19:37:39.886Z,3.65
2017-12-31T19:40:08.104Z,4.12
2017-12-31T19:42:35.548Z,3.30
2017-12-31T19:45:03.128Z,2.83
2017-12-31T19:47:30.593Z,7.05
2017-12-31T19:49:58.041Z,2.40
2017-12-31T19:52:25.497Z,2.78
2017-12-31T19:54:52.940Z,2.60
2017-12-31T19:57:20.413Z,2.50
2017-12-31T19:59:47.885Z,2.95
2017-12-31T20:02:15.329Z,3.78
2017-12-31T20:04:42.777Z,2.75
2017-12-31T20:07:10.386Z,2.95
2017-12-31T20:09:39.592Z,3.62
2017-12-31T20:12:07.808Z,2.70
2017-12-31T20:14:36.073Z,3.33
2017-12-31T20:17:03.516Z,2.15
2017-12-31T20:19:32.325Z,2.03
2017-12-31T20:21:59.836Z,2.28
2017-12-31T20:24:27.452Z,2.72
2017-12-31T20:26:54.912Z,2.30
2017-12-31T20:29:22.394Z,2.80
2017-12-31T20:31:49.903Z,4.90
2017-12-31T20:34:17.333Z,2.10
2017-12-31T20:36:45.564Z,3.20
2017-12-31T20:39:13.008Z,1.95
2017-12-31T20:41:40.580Z,2.65
2017-12-31T20:44:08.024Z,2.22
2017-12-31T20:46:35.626Z,1.77
2017-12-31T20:49:12.110Z,0.95
2017-12-31T20:51:39.605Z,1.05
2017-12-31T20:54:07.089Z,2.75
2017-12-31T20:56:34.638Z,1.08
2017-12-31T20:59:02.089Z,2.95
2017-12-31T21:01:29.563Z,1.50
2017-12-31T21:04:01.933Z,2.87
2017-12-31T21:06:29.396Z,1.92
2017-12-31T21:08:56.861Z,1.35
2017-12-31T21:11:24.362Z,1.52
2017-12-31T21:13:51.947Z,1.75
2017-12-31T21:16:19.434Z,1.85
2017-12-31T21:18:46.938Z,2.87
2017-12-31T21:21:15.350Z,2.62
2017-12-31T21:23:42.785Z,1.70
2017-12-31T21:26:10.281Z,1.55
2017-12-31T21:28:37.824Z,2.30
2017-12-31T21:31:05.290Z,1.95
2017-12-31T21:33:32.883Z,2.62
2017-12-31T21:36:00.375Z,1.70
2017-12-31T21:38:27.945Z,3.08
2017-12-31T21:40:55.566Z,2.10
2017-12-31T21:43:23.037Z,5.25
2017-12-31T21:45:50.488Z,2.75
2017-12-31T21:48:17.926Z,3.00
2017-12-31T21:50:45.412Z,3.30
2017-12-31T21:53:13.615Z,2.55
2017-12-31T21:55:41.053Z,2.75
2017-12-31T21:58:10.712Z,2.78
2017-12-31T22:00:38.207Z,4.22
2017-12-31T22:03:05.668Z,5.40
2017-12-31T22:05:33.136Z,3.50
2017-12-31T22:08:01.385Z,4.95
2017-12-31T22:10:28.898Z,4.68
2017-12-31T22:12:56.338Z,5.00
2017-12-31T22:15:23.934Z,8.68
2017-12-31T22:17:51.373Z,4.55
2017-12-31T22:20:18.955Z,4.50
2017-12-31T22:22:46.400Z,5.60
2017-12-31T22:25:13.872Z,4.62
2017-12-31T22:27:41.325Z,7.43
2017-12-31T22:30:08.794Z,4.50
2017-12-31T22:32:39.237Z,5.03
2017-12-31T22:35:09.353Z,3.40
2017-12-31T22:37:36.799Z,4.12
2017-12-31T22:40:04.244Z,6.40
2017-12-31T22:42:32.228Z,11.98
2017-12-31T22:44:59.669Z,4.20
2017-12-31T22:47:27.171Z,3.70
2017-12-31T22:49:55.932Z,3.40
2017-12-31T22:52:23.485Z,3.20
2017-12-31T22:54:51.135Z,2.97
2017-12-31T22:57:18.573Z,3.72
2017-12-31T22:59:46.035Z,4.65
2017-12-31T23:02:13.480Z,436.30
2017-12-31T23:04:46.967Z,237.73
2017-12-31T23:07:15.185Z,146.15
2017-12-31T23:09:42.682Z,128.62
2017-12-31T23:12:10.152Z,103.60
2017-12-31T23:14:38.693Z,80.18
2017-12-31T23:17:06.154Z,88.87
2017-12-31T23:22:24.417Z,52.55
2017-12-31T23:24:51.853Z,47.55
2017-12-31T23:27:19.288Z,38.10
2017-12-31T23:29:46.904Z,53.45
2017-12-31T23:32:14.349Z,60.80
2017-12-31T23:34:41.952Z,41.33
2017-12-31T23:37:21.150Z,31.67
2017-12-31T23:39:48.584Z,38.33
2017-12-31T23:42:16.061Z,40.58
2017-12-31T23:44:43.497Z,35.38
2017-12-31T23:47:10.941Z,36.30
2017-12-31T23:49:38.745Z,38.40
2017-12-31T23:52:06.177Z,41.80
2017-12-31T23:54:33.620Z,43.90
2017-12-31T23:57:07.193Z,42.88
2017-12-31T23:59:35.403Z,37.75
